sensor_id;sensor_type;location;lat;lon;timestamp;P1;durP1;ratioP1;P2;durP2;ratioP2
37907;SDS011;23740;51.550;6.846;2023-02-28T00:01:06;2.42;;;1.73;;
37907;SDS011;23740;51.550;6.846;2023-02-28T00:03:33;2.28;;;1.70;;
37907;SDS011;23740;51.550;6.846;2023-02-28T00:06:00;2.92;;;1.70;;
37907;SDS011;23740;51.550;6.846;2023-02-28T00:08:27;2.58;;;1.90;;
37907;SDS011;23740;51.550;6.846;2023-02-28T00:10:54;2.53;;;1.83;;
37907;SDS011;23740;51.550;6.846;2023-02-28T00:13:22;2.30;;;1.73;;
37907;SDS011;23740;51.550;6.846;2023-02-28T00:15:57;2.03;;;1.65;;
37907;SDS011;23740;51.550;6.846;2023-02-28T00:18:25;2.05;;;1.50;;
37907;SDS011;23740;51.550;6.846;2023-02-28T00:20:52;2.65;;;2.00;;
37907;SDS011;23740;51.550;6.846;2023-02-28T00:23:18;3.38;;;1.70;;
37907;SDS011;23740;51.550;6.846;2023-02-28T00:25:45;2.58;;;1.85;;
37907;SDS011;23740;51.550;6.846;2023-02-28T00:28:11;2.28;;;1.70;;
37907;SDS011;23740;51.550;6.846;2023-02-28T00:30:39;2.25;;;1.98;;
37907;SDS011;23740;51.550;6.846;2023-02-28T00:33:06;2.22;;;1.73;;
37907;SDS011;23740;51.550;6.846;2023-02-28T00:35:33;1.88;;;1.50;;
37907;SDS011;23740;51.550;6.846;2023-02-28T00:37:59;2.88;;;1.73;;
37907;SDS011;23740;51.550;6.846;2023-02-28T00:40:27;2.08;;;1.60;;
37907;SDS011;23740;51.550;6.846;2023-02-28T00:42:54;2.90;;;1.60;;
37907;SDS011;23740;51.550;6.846;2023-02-28T00:45:21;2.78;;;1.98;;
37907;SDS011;23740;51.550;6.846;2023-02-28T00:47:49;2.72;;;1.85;;
37907;SDS011;23740;51.550;6.846;2023-02-28T00:50:16;2.17;;;1.80;;
37907;SDS011;23740;51.550;6.846;2023-02-28T00:52:43;2.70;;;1.80;;
37907;SDS011;23740;51.550;6.846;2023-02-28T00:55:09;2.38;;;1.70;;
37907;SDS011;23740;51.550;6.846;2023-02-28T00:57:36;3.35;;;2.10;;
37907;SDS011;23740;51.550;6.846;2023-02-28T01:00:03;3.60;;;1.85;;
37907;SDS011;23740;51.550;6.846;2023-02-28T01:02:30;3.40;;;1.88;;
37907;SDS011;23740;51.550;6.846;2023-02-28T01:04:58;3.08;;;1.52;;
37907;SDS011;23740;51.550;6.846;2023-02-28T01:07:25;2.80;;;1.85;;
37907;SDS011;23740;51.550;6.846;2023-02-28T01:09:51;3.17;;;1.80;;
37907;SDS011;23740;51.550;6.846;2023-02-28T01:12:18;3.72;;;1.73;;
37907;SDS011;23740;51.550;6.846;2023-02-28T01:14:44;2.30;;;1.63;;
37907;SDS011;23740;51.550;6.846;2023-02-28T01:17:11;2.75;;;1.60;;
37907;SDS011;23740;51.550;6.846;2023-02-28T01:19:38;2.63;;;1.80;;
37907;SDS011;23740;51.550;6.846;2023-02-28T01:22:06;2.58;;;1.55;;
37907;SDS011;23740;51.550;6.846;2023-02-28T01:24:32;2.13;;;1.63;;
37907;SDS011;23740;51.550;6.846;2023-02-28T01:26:59;2.97;;;1.88;;
37907;SDS011;23740;51.550;6.846;2023-02-28T01:29:26;3.25;;;1.70;;
37907;SDS011;23740;51.550;6.846;2023-02-28T01:31:52;1.88;;;1.70;;
37907;SDS011;23740;51.550;6.846;2023-02-28T01:34:19;2.05;;;1.60;;
37907;SDS011;23740;51.550;6.846;2023-02-28T01:36:45;2.00;;;1.60;;
37907;SDS011;23740;51.550;6.846;2023-02-28T01:39:13;1.65;;;1.55;;
37907;SDS011;23740;51.550;6.846;2023-02-28T01:41:40;2.35;;;1.70;;
37907;SDS011;23740;51.550;6.846;2023-02-28T01:47:09;3.67;;;1.67;;
37907;SDS011;23740;51.550;6.846;2023-02-28T01:49:36;1.95;;;1.60;;
37907;SDS011;23740;51.550;6.846;2023-02-28T01:52:02;2.42;;;1.77;;
37907;SDS011;23740;51.550;6.846;2023-02-28T01:54:31;1.70;;;1.52;;
37907;SDS011;23740;51.550;6.846;2023-02-28T01:57:00;2.08;;;1.88;;
37907;SDS011;23740;51.550;6.846;2023-02-28T01:59:31;2.45;;;1.60;;
37907;SDS011;23740;51.550;6.846;2023-02-28T02:02:00;2.00;;;1.63;;
37907;SDS011;23740;51.550;6.846;2023-02-28T02:04:27;3.03;;;1.73;;
37907;SDS011;23740;51.550;6.846;2023-02-28T02:06:59;2.05;;;1.60;;
37907;SDS011;23740;51.550;6.846;2023-02-28T02:09:26;3.88;;;1.70;;
37907;SDS011;23740;51.550;6.846;2023-02-28T02:11:54;3.45;;;1.90;;
37907;SDS011;23740;51.550;6.846;2023-02-28T02:14:25;2.13;;;1.60;;
37907;SDS011;23740;51.550;6.846;2023-02-28T02:17:15;2.45;;;1.55;;
37907;SDS011;23740;51.550;6.846;2023-02-28T02:23:07;1.58;;;1.27;;
37907;SDS011;23740;51.550;6.846;2023-02-28T02:25:48;3.03;;;1.95;;
37907;SDS011;23740;51.550;6.846;2023-02-28T02:31:52;1.63;;;1.50;;
37907;SDS011;23740;51.550;6.846;2023-02-28T02:34:31;2.13;;;1.50;;
37907;SDS011;23740;51.550;6.846;2023-02-28T02:37:24;2.13;;;1.60;;
37907;SDS011;23740;51.550;6.846;2023-02-28T02:39:58;2.13;;;1.70;;
37907;SDS011;23740;51.550;6.846;2023-02-28T02:42:29;2.78;;;1.52;;
37907;SDS011;23740;51.550;6.846;2023-02-28T02:45:06;2.47;;;1.77;;
37907;SDS011;23740;51.550;6.846;2023-02-28T02:50:04;1.67;;;1.50;;
37907;SDS011;23740;51.550;6.846;2023-02-28T02:52:34;3.75;;;1.75;;
37907;SDS011;23740;51.550;6.846;2023-02-28T02:55:04;1.88;;;1.50;;
37907;SDS011;23740;51.550;6.846;2023-02-28T02:57:33;3.03;;;1.73;;
37907;SDS011;23740;51.550;6.846;2023-02-28T03:00:02;1.45;;;1.35;;
37907;SDS011;23740;51.550;6.846;2023-02-28T03:02:33;1.63;;;1.38;;
37907;SDS011;23740;51.550;6.846;2023-02-28T03:05:01;3.05;;;1.70;;
37907;SDS011;23740;51.550;6.846;2023-02-28T03:07:31;2.10;;;1.50;;
37907;SDS011;23740;51.550;6.846;2023-02-28T03:09:57;1.60;;;1.50;;
37907;SDS011;23740;51.550;6.846;2023-02-28T03:15:08;2.83;;;1.60;;
37907;SDS011;23740;51.550;6.846;2023-02-28T03:17:45;2.95;;;1.98;;
37907;SDS011;23740;51.550;6.846;2023-02-28T03:20:22;1.50;;;1.40;;
37907;SDS011;23740;51.550;6.846;2023-02-28T03:22:58;2.20;;;1.90;;
37907;SDS011;23740;51.550;6.846;2023-02-28T03:25:31;4.10;;;2.53;;
37907;SDS011;23740;51.550;6.846;2023-02-28T03:28:03;3.35;;;2.22;;
37907;SDS011;23740;51.550;6.846;2023-02-28T03:30:35;4.07;;;2.45;;
37907;SDS011;23740;51.550;6.846;2023-02-28T03:33:06;5.43;;;2.30;;
37907;SDS011;23740;51.550;6.846;2023-02-28T03:35:39;3.55;;;2.30;;
37907;SDS011;23740;51.550;6.846;2023-02-28T03:38:09;2.92;;;2.22;;
37907;SDS011;23740;51.550;6.846;2023-02-28T03:40:41;2.88;;;2.00;;
37907;SDS011;23740;51.550;6.846;2023-02-28T03:43:10;3.05;;;2.00;;
37907;SDS011;23740;51.550;6.846;2023-02-28T03:45:39;2.85;;;1.95;;
37907;SDS011;23740;51.550;6.846;2023-02-28T03:48:07;2.58;;;2.00;;
37907;SDS011;23740;51.550;6.846;2023-02-28T03:50:40;2.40;;;1.73;;
37907;SDS011;23740;51.550;6.846;2023-02-28T03:53:08;2.83;;;1.90;;
37907;SDS011;23740;51.550;6.846;2023-02-28T03:55:39;2.78;;;1.80;;
37907;SDS011;23740;51.550;6.846;2023-02-28T03:58:09;3.03;;;1.90;;
37907;SDS011;23740;51.550;6.846;2023-02-28T04:00:39;3.78;;;1.67;;
37907;SDS011;23740;51.550;6.846;2023-02-28T04:03:07;2.53;;;1.90;;
37907;SDS011;23740;51.550;6.846;2023-02-28T04:05:34;1.80;;;1.58;;
37907;SDS011;23740;51.550;6.846;2023-02-28T04:08:15;3.67;;;2.00;;
37907;SDS011;23740;51.550;6.846;2023-02-28T04:10:53;2.45;;;1.67;;
37907;SDS011;23740;51.550;6.846;2023-02-28T04:13:22;2.40;;;1.70;;
37907;SDS011;23740;51.550;6.846;2023-02-28T04:15:49;2.50;;;1.80;;
37907;SDS011;23740;51.550;6.846;2023-02-28T04:18:16;1.80;;;1.48;;
37907;SDS011;23740;51.550;6.846;2023-02-28T04:20:42;3.28;;;1.60;;
37907;SDS011;23740;51.550;6.846;2023-02-28T04:23:13;3.05;;;1.77;;
37907;SDS011;23740;51.550;6.846;2023-02-28T04:25:39;1.77;;;1.58;;
37907;SDS011;23740;51.550;6.846;2023-02-28T04:28:06;5.10;;;1.77;;
37907;SDS011;23740;51.550;6.846;2023-02-28T04:30:33;3.78;;;1.83;;
37907;SDS011;23740;51.550;6.846;2023-02-28T04:32:59;2.35;;;1.73;;
37907;SDS011;23740;51.550;6.846;2023-02-28T04:35:26;2.63;;;2.00;;
37907;SDS011;23740;51.550;6.846;2023-02-28T04:37:53;2.67;;;1.80;;
37907;SDS011;23740;51.550;6.846;2023-02-28T04:40:21;3.28;;;2.00;;
37907;SDS011;23740;51.550;6.846;2023-02-28T04:42:47;2.58;;;1.45;;
37907;SDS011;23740;51.550;6.846;2023-02-28T04:45:14;3.47;;;1.92;;
37907;SDS011;23740;51.550;6.846;2023-02-28T04:47:42;2.75;;;1.80;;
37907;SDS011;23740;51.550;6.846;2023-02-28T04:50:09;2.00;;;1.77;;
37907;SDS011;23740;51.550;6.846;2023-02-28T04:52:36;2.05;;;1.70;;
37907;SDS011;23740;51.550;6.846;2023-02-28T04:55:03;1.90;;;1.40;;
37907;SDS011;23740;51.550;6.846;2023-02-28T04:57:31;2.65;;;1.73;;
37907;SDS011;23740;51.550;6.846;2023-02-28T04:59:58;2.47;;;1.83;;
37907;SDS011;23740;51.550;6.846;2023-02-28T05:02:25;3.22;;;2.10;;
37907;SDS011;23740;51.550;6.846;2023-02-28T05:04:51;2.03;;;1.60;;
37907;SDS011;23740;51.550;6.846;2023-02-28T05:07:18;4.35;;;1.85;;
37907;SDS011;23740;51.550;6.846;2023-02-28T05:09:44;1.98;;;1.55;;
37907;SDS011;23740;51.550;6.846;2023-02-28T05:12:11;2.33;;;1.52;;
37907;SDS011;23740;51.550;6.846;2023-02-28T05:14:39;2.50;;;1.48;;
37907;SDS011;23740;51.550;6.846;2023-02-28T05:17:05;4.38;;;1.92;;
37907;SDS011;23740;51.550;6.846;2023-02-28T05:19:32;3.67;;;2.67;;
37907;SDS011;23740;51.550;6.846;2023-02-28T05:21:59;6.28;;;3.72;;
37907;SDS011;23740;51.550;6.846;2023-02-28T05:24:25;5.35;;;3.28;;
37907;SDS011;23740;51.550;6.846;2023-02-28T05:26:52;5.00;;;3.45;;
37907;SDS011;23740;51.550;6.846;2023-02-28T05:29:20;5.55;;;3.10;;
37907;SDS011;23740;51.550;6.846;2023-02-28T05:31:48;7.45;;;3.42;;
37907;SDS011;23740;51.550;6.846;2023-02-28T05:34:15;4.75;;;3.00;;
37907;SDS011;23740;51.550;6.846;2023-02-28T05:36:42;6.05;;;3.38;;
37907;SDS011;23740;51.550;6.846;2023-02-28T05:39:08;5.00;;;2.90;;
37907;SDS011;23740;51.550;6.846;2023-02-28T05:41:38;4.13;;;2.88;;
37907;SDS011;23740;51.550;6.846;2023-02-28T05:44:05;4.50;;;2.63;;
37907;SDS011;23740;51.550;6.846;2023-02-28T05:46:32;3.75;;;2.60;;
37907;SDS011;23740;51.550;6.846;2023-02-28T05:49:00;3.78;;;2.70;;
37907;SDS011;23740;51.550;6.846;2023-02-28T05:51:27;3.90;;;2.50;;
37907;SDS011;23740;51.550;6.846;2023-02-28T05:53:54;3.33;;;2.42;;
37907;SDS011;23740;51.550;6.846;2023-02-28T05:56:21;3.13;;;2.50;;
37907;SDS011;23740;51.550;6.846;2023-02-28T05:58:48;3.50;;;2.50;;
37907;SDS011;23740;51.550;6.846;2023-02-28T06:01:22;3.05;;;2.30;;
37907;SDS011;23740;51.550;6.846;2023-02-28T06:03:50;3.05;;;2.45;;
37907;SDS011;23740;51.550;6.846;2023-02-28T06:06:18;3.70;;;2.70;;
37907;SDS011;23740;51.550;6.846;2023-02-28T06:08:45;4.00;;;2.45;;
37907;SDS011;23740;51.550;6.846;2023-02-28T06:11:11;4.97;;;3.03;;
37907;SDS011;23740;51.550;6.846;2023-02-28T06:13:38;3.60;;;2.58;;
37907;SDS011;23740;51.550;6.846;2023-02-28T06:16:06;4.25;;;2.30;;
37907;SDS011;23740;51.550;6.846;2023-02-28T06:18:37;3.10;;;2.30;;
37907;SDS011;23740;51.550;6.846;2023-02-28T06:21:03;4.18;;;2.63;;
37907;SDS011;23740;51.550;6.846;2023-02-28T06:23:32;4.72;;;2.75;;
37907;SDS011;23740;51.550;6.846;2023-02-28T06:25:58;3.50;;;2.53;;
37907;SDS011;23740;51.550;6.846;2023-02-28T06:28:25;4.38;;;2.58;;
37907;SDS011;23740;51.550;6.846;2023-02-28T06:30:52;4.15;;;2.40;;
37907;SDS011;23740;51.550;6.846;2023-02-28T06:33:18;5.40;;;2.50;;
37907;SDS011;23740;51.550;6.846;2023-02-28T06:35:46;3.20;;;2.28;;
37907;SDS011;23740;51.550;6.846;2023-02-28T06:38:13;3.67;;;2.70;;
37907;SDS011;23740;51.550;6.846;2023-02-28T06:40:41;3.13;;;2.30;;
37907;SDS011;23740;51.550;6.846;2023-02-28T06:43:08;3.30;;;2.40;;
37907;SDS011;23740;51.550;6.846;2023-02-28T06:45:41;3.95;;;2.67;;
37907;SDS011;23740;51.550;6.846;2023-02-28T06:48:08;3.70;;;2.38;;
37907;SDS011;23740;51.550;6.846;2023-02-28T06:50:35;3.67;;;2.45;;
37907;SDS011;23740;51.550;6.846;2023-02-28T06:53:01;3.80;;;2.58;;
37907;SDS011;23740;51.550;6.846;2023-02-28T06:55:28;3.55;;;2.20;;
37907;SDS011;23740;51.550;6.846;2023-02-28T06:57:56;3.17;;;2.20;;
37907;SDS011;23740;51.550;6.846;2023-02-28T07:00:23;3.42;;;2.30;;
37907;SDS011;23740;51.550;6.846;2023-02-28T07:02:50;2.85;;;2.13;;
37907;SDS011;23740;51.550;6.846;2023-02-28T07:05:19;3.47;;;2.20;;
37907;SDS011;23740;51.550;6.846;2023-02-28T07:07:45;3.35;;;2.35;;
37907;SDS011;23740;51.550;6.846;2023-02-28T07:10:12;3.63;;;2.40;;
37907;SDS011;23740;51.550;6.846;2023-02-28T07:12:41;3.83;;;2.00;;
37907;SDS011;23740;51.550;6.846;2023-02-28T07:17:38;2.45;;;2.00;;
37907;SDS011;23740;51.550;6.846;2023-02-28T07:20:05;2.38;;;1.95;;
37907;SDS011;23740;51.550;6.846;2023-02-28T07:22:33;3.70;;;2.10;;
37907;SDS011;23740;51.550;6.846;2023-02-28T07:25:00;3.22;;;2.20;;
37907;SDS011;23740;51.550;6.846;2023-02-28T07:27:26;4.78;;;2.20;;
37907;SDS011;23740;51.550;6.846;2023-02-28T07:29:53;3.08;;;2.20;;
37907;SDS011;23740;51.550;6.846;2023-02-28T07:32:21;2.95;;;2.08;;
37907;SDS011;23740;51.550;6.846;2023-02-28T07:34:47;3.13;;;2.00;;
37907;SDS011;23740;51.550;6.846;2023-02-28T07:37:14;3.90;;;2.45;;
37907;SDS011;23740;51.550;6.846;2023-02-28T07:39:41;2.22;;;2.03;;
37907;SDS011;23740;51.550;6.846;2023-02-28T07:42:08;3.88;;;2.00;;
37907;SDS011;23740;51.550;6.846;2023-02-28T07:44:37;3.45;;;2.10;;
37907;SDS011;23740;51.550;6.846;2023-02-28T07:47:05;5.32;;;2.63;;
37907;SDS011;23740;51.550;6.846;2023-02-28T07:49:34;2.78;;;2.00;;
37907;SDS011;23740;51.550;6.846;2023-02-28T07:52:01;4.68;;;2.00;;
37907;SDS011;23740;51.550;6.846;2023-02-28T07:54:28;3.33;;;1.90;;
37907;SDS011;23740;51.550;6.846;2023-02-28T07:56:55;4.45;;;2.40;;
37907;SDS011;23740;51.550;6.846;2023-02-28T07:59:22;5.60;;;2.15;;
37907;SDS011;23740;51.550;6.846;2023-02-28T08:01:48;2.47;;;2.08;;
37907;SDS011;23740;51.550;6.846;2023-02-28T08:04:15;2.60;;;1.83;;
37907;SDS011;23740;51.550;6.846;2023-02-28T08:06:43;2.92;;;2.05;;
37907;SDS011;23740;51.550;6.846;2023-02-28T08:09:10;2.78;;;2.10;;
37907;SDS011;23740;51.550;6.846;2023-02-28T08:11:37;1.92;;;1.73;;
37907;SDS011;23740;51.550;6.846;2023-02-28T08:14:03;2.25;;;1.90;;
37907;SDS011;23740;51.550;6.846;2023-02-28T08:16:30;4.70;;;2.28;;
37907;SDS011;23740;51.550;6.846;2023-02-28T08:18:57;3.00;;;2.53;;
37907;SDS011;23740;51.550;6.846;2023-02-28T08:21:24;3.50;;;2.13;;
37907;SDS011;23740;51.550;6.846;2023-02-28T08:23:52;2.28;;;2.00;;
37907;SDS011;23740;51.550;6.846;2023-02-28T08:26:18;3.78;;;2.08;;
37907;SDS011;23740;51.550;6.846;2023-02-28T08:28:45;3.85;;;2.10;;
37907;SDS011;23740;51.550;6.846;2023-02-28T08:31:13;3.03;;;2.10;;
37907;SDS011;23740;51.550;6.846;2023-02-28T08:33:41;2.70;;;2.03;;
37907;SDS011;23740;51.550;6.846;2023-02-28T08:36:09;3.20;;;1.90;;
37907;SDS011;23740;51.550;6.846;2023-02-28T08:38:36;2.75;;;1.92;;
37907;SDS011;23740;51.550;6.846;2023-02-28T08:41:05;2.35;;;1.70;;
37907;SDS011;23740;51.550;6.846;2023-02-28T08:43:33;3.63;;;2.25;;
37907;SDS011;23740;51.550;6.846;2023-02-28T08:46:00;3.25;;;2.10;;
37907;SDS011;23740;51.550;6.846;2023-02-28T08:48:28;2.85;;;2.10;;
37907;SDS011;23740;51.550;6.846;2023-02-28T08:50:56;2.17;;;1.65;;
37907;SDS011;23740;51.550;6.846;2023-02-28T08:53:23;2.92;;;1.80;;
37907;SDS011;23740;51.550;6.846;2023-02-28T08:55:55;2.17;;;1.98;;
37907;SDS011;23740;51.550;6.846;2023-02-28T08:58:24;3.08;;;2.00;;
37907;SDS011;23740;51.550;6.846;2023-02-28T09:00:50;2.43;;;1.83;;
37907;SDS011;23740;51.550;6.846;2023-02-28T09:03:20;3.17;;;2.30;;
37907;SDS011;23740;51.550;6.846;2023-02-28T09:05:54;2.55;;;1.80;;
37907;SDS011;23740;51.550;6.846;2023-02-28T09:08:21;3.35;;;2.35;;
37907;SDS011;23740;51.550;6.846;2023-02-28T09:10:49;3.47;;;2.10;;
37907;SDS011;23740;51.550;6.846;2023-02-28T09:13:17;2.50;;;1.90;;
37907;SDS011;23740;51.550;6.846;2023-02-28T09:18:15;3.28;;;2.00;;
37907;SDS011;23740;51.550;6.846;2023-02-28T09:20:43;2.47;;;2.00;;
37907;SDS011;23740;51.550;6.846;2023-02-28T09:23:10;2.05;;;1.65;;
37907;SDS011;23740;51.550;6.846;2023-02-28T09:25:38;2.92;;;1.98;;
37907;SDS011;23740;51.550;6.846;2023-02-28T09:28:11;2.13;;;1.80;;
37907;SDS011;23740;51.550;6.846;2023-02-28T09:30:39;3.63;;;2.00;;
37907;SDS011;23740;51.550;6.846;2023-02-28T09:33:07;2.78;;;1.90;;
37907;SDS011;23740;51.550;6.846;2023-02-28T09:35:34;2.50;;;1.85;;
37907;SDS011;23740;51.550;6.846;2023-02-28T09:38:02;1.90;;;1.65;;
37907;SDS011;23740;51.550;6.846;2023-02-28T09:40:29;1.90;;;1.63;;
37907;SDS011;23740;51.550;6.846;2023-02-28T09:42:57;2.33;;;1.77;;
37907;SDS011;23740;51.550;6.846;2023-02-28T09:45:25;2.25;;;1.80;;
37907;SDS011;23740;51.550;6.846;2023-02-28T09:47:54;2.22;;;1.88;;
37907;SDS011;23740;51.550;6.846;2023-02-28T09:50:28;2.20;;;2.00;;
37907;SDS011;23740;51.550;6.846;2023-02-28T09:52:58;2.38;;;1.80;;
37907;SDS011;23740;51.550;6.846;2023-02-28T09:55:27;2.85;;;1.60;;
37907;SDS011;23740;51.550;6.846;2023-02-28T09:57:56;2.58;;;2.03;;
37907;SDS011;23740;51.550;6.846;2023-02-28T10:00:26;2.30;;;1.75;;
37907;SDS011;23740;51.550;6.846;2023-02-28T10:05:53;1.77;;;1.60;;
37907;SDS011;23740;51.550;6.846;2023-02-28T10:08:25;1.75;;;1.65;;
37907;SDS011;23740;51.550;6.846;2023-02-28T10:10:54;2.97;;;1.95;;
37907;SDS011;23740;51.550;6.846;2023-02-28T10:13:23;2.72;;;1.67;;
37907;SDS011;23740;51.550;6.846;2023-02-28T10:15:52;1.92;;;1.63;;
37907;SDS011;23740;51.550;6.846;2023-02-28T10:18:24;2.22;;;1.67;;
37907;SDS011;23740;51.550;6.846;2023-02-28T10:20:54;2.63;;;1.75;;
37907;SDS011;23740;51.550;6.846;2023-02-28T10:23:24;2.00;;;1.50;;
37907;SDS011;23740;51.550;6.846;2023-02-28T10:25:53;3.42;;;1.77;;
37907;SDS011;23740;51.550;6.846;2023-02-28T10:30:48;1.45;;;1.35;;
37907;SDS011;23740;51.550;6.846;2023-02-28T10:33:18;3.13;;;2.00;;
37907;SDS011;23740;51.550;6.846;2023-02-28T10:35:46;2.47;;;1.77;;
37907;SDS011;23740;51.550;6.846;2023-02-28T10:38:17;2.55;;;1.90;;
37907;SDS011;23740;51.550;6.846;2023-02-28T10:40:45;1.50;;;1.30;;
37907;SDS011;23740;51.550;6.846;2023-02-28T10:43:19;2.50;;;1.60;;
37907;SDS011;23740;51.550;6.846;2023-02-28T10:45:55;1.80;;;1.58;;
37907;SDS011;23740;51.550;6.846;2023-02-28T10:48:29;2.78;;;1.95;;
37907;SDS011;23740;51.550;6.846;2023-02-28T10:50:58;2.25;;;1.45;;
37907;SDS011;23740;51.550;6.846;2023-02-28T10:53:30;3.22;;;2.10;;
37907;SDS011;23740;51.550;6.846;2023-02-28T10:55:59;1.70;;;1.52;;
37907;SDS011;23740;51.550;6.846;2023-02-28T10:58:28;3.08;;;1.73;;
37907;SDS011;23740;51.550;6.846;2023-02-28T11:00:57;2.22;;;1.75;;
37907;SDS011;23740;51.550;6.846;2023-02-28T11:03:34;2.28;;;1.50;;
37907;SDS011;23740;51.550;6.846;2023-02-28T11:06:05;2.67;;;1.52;;
37907;SDS011;23740;51.550;6.846;2023-02-28T11:08:34;2.20;;;1.52;;
37907;SDS011;23740;51.550;6.846;2023-02-28T11:11:10;1.85;;;1.52;;
37907;SDS011;23740;51.550;6.846;2023-02-28T11:13:37;1.67;;;1.52;;
37907;SDS011;23740;51.550;6.846;2023-02-28T11:16:04;1.75;;;1.60;;
37907;SDS011;23740;51.550;6.846;2023-02-28T11:18:35;2.53;;;1.65;;
37907;SDS011;23740;51.550;6.846;2023-02-28T11:21:05;2.05;;;1.85;;
37907;SDS011;23740;51.550;6.846;2023-02-28T11:23:32;1.80;;;1.50;;
37907;SDS011;23740;51.550;6.846;2023-02-28T11:26:06;1.75;;;1.30;;
37907;SDS011;23740;51.550;6.846;2023-02-28T11:28:36;2.38;;;1.70;;
37907;SDS011;23740;51.550;6.846;2023-02-28T11:31:05;1.67;;;1.50;;
37907;SDS011;23740;51.550;6.846;2023-02-28T11:33:41;2.35;;;1.50;;
37907;SDS011;23740;51.550;6.846;2023-02-28T11:36:10;1.98;;;1.50;;
37907;SDS011;23740;51.550;6.846;2023-02-28T11:38:40;2.00;;;1.67;;
37907;SDS011;23740;51.550;6.846;2023-02-28T11:41:14;2.33;;;1.60;;
37907;SDS011;23740;51.550;6.846;2023-02-28T11:43:50;2.53;;;1.70;;
37907;SDS011;23740;51.550;6.846;2023-02-28T11:46:24;1.70;;;1.40;;
37907;SDS011;23740;51.550;6.846;2023-02-28T11:49:00;3.78;;;1.73;;
37907;SDS011;23740;51.550;6.846;2023-02-28T11:51:33;1.65;;;1.55;;
37907;SDS011;23740;51.550;6.846;2023-02-28T11:57:19;1.48;;;1.38;;
37907;SDS011;23740;51.550;6.846;2023-02-28T11:59:56;2.33;;;1.70;;
37907;SDS011;23740;51.550;6.846;2023-02-28T12:02:29;1.95;;;1.60;;
37907;SDS011;23740;51.550;6.846;2023-02-28T12:05:10;1.33;;;1.23;;
37907;SDS011;23740;51.550;6.846;2023-02-28T12:07:45;1.67;;;1.30;;
37907;SDS011;23740;51.550;6.846;2023-02-28T12:10:21;1.52;;;1.25;;
37907;SDS011;23740;51.550;6.846;2023-02-28T12:12:51;2.42;;;1.50;;
37907;SDS011;23740;51.550;6.846;2023-02-28T12:15:32;1.30;;;1.20;;
37907;SDS011;23740;51.550;6.846;2023-02-28T12:18:10;1.67;;;1.45;;
37907;SDS011;23740;51.550;6.846;2023-02-28T12:20:46;1.92;;;1.40;;
37907;SDS011;23740;51.550;6.846;2023-02-28T12:23:22;2.28;;;1.55;;
37907;SDS011;23740;51.550;6.846;2023-02-28T12:26:02;2.40;;;1.50;;
37907;SDS011;23740;51.550;6.846;2023-02-28T12:28:35;1.83;;;1.38;;
37907;SDS011;23740;51.550;6.846;2023-02-28T12:31:05;2.50;;;1.55;;
37907;SDS011;23740;51.550;6.846;2023-02-28T12:33:36;3.30;;;1.88;;
37907;SDS011;23740;51.550;6.846;2023-02-28T12:36:07;1.92;;;1.70;;
37907;SDS011;23740;51.550;6.846;2023-02-28T12:38:38;2.00;;;1.42;;
37907;SDS011;23740;51.550;6.846;2023-02-28T12:41:11;1.92;;;1.60;;
37907;SDS011;23740;51.550;6.846;2023-02-28T12:43:40;2.95;;;1.88;;
37907;SDS011;23740;51.550;6.846;2023-02-28T12:46:10;2.15;;;1.55;;
37907;SDS011;23740;51.550;6.846;2023-02-28T12:48:40;2.30;;;1.40;;
37907;SDS011;23740;51.550;6.846;2023-02-28T12:51:09;2.90;;;1.73;;
37907;SDS011;23740;51.550;6.846;2023-02-28T12:53:41;2.50;;;1.55;;
37907;SDS011;23740;51.550;6.846;2023-02-28T12:56:17;1.35;;;1.23;;
37907;SDS011;23740;51.550;6.846;2023-02-28T12:58:48;1.88;;;1.38;;
37907;SDS011;23740;51.550;6.846;2023-02-28T13:01:32;2.20;;;1.50;;
37907;SDS011;23740;51.550;6.846;2023-02-28T13:06:44;1.52;;;1.20;;
37907;SDS011;23740;51.550;6.846;2023-02-28T13:09:17;2.13;;;1.23;;
37907;SDS011;23740;51.550;6.846;2023-02-28T13:11:45;1.33;;;1.13;;
37907;SDS011;23740;51.550;6.846;2023-02-28T13:14:20;1.67;;;1.50;;
37907;SDS011;23740;51.550;6.846;2023-02-28T13:16:53;2.55;;;1.65;;
37907;SDS011;23740;51.550;6.846;2023-02-28T13:19:22;1.90;;;1.30;;
37907;SDS011;23740;51.550;6.846;2023-02-28T13:21:50;1.67;;;1.33;;
37907;SDS011;23740;51.550;6.846;2023-02-28T13:24:36;2.35;;;1.58;;
37907;SDS011;23740;51.550;6.846;2023-02-28T13:33:22;1.30;;;1.10;;
37907;SDS011;23740;51.550;6.846;2023-02-28T13:38:51;2.58;;;1.33;;
37907;SDS011;23740;51.550;6.846;2023-02-28T13:44:10;2.35;;;1.70;;
37907;SDS011;23740;51.550;6.846;2023-02-28T13:49:37;1.85;;;1.38;;
37907;SDS011;23740;51.550;6.846;2023-02-28T13:52:07;2.00;;;1.27;;
37907;SDS011;23740;51.550;6.846;2023-02-28T13:54:43;1.40;;;1.13;;
37907;SDS011;23740;51.550;6.846;2023-02-28T13:57:38;3.53;;;1.48;;
37907;SDS011;23740;51.550;6.846;2023-02-28T14:00:20;3.10;;;1.50;;
37907;SDS011;23740;51.550;6.846;2023-02-28T14:02:59;1.75;;;1.10;;
37907;SDS011;23740;51.550;6.846;2023-02-28T14:05:39;1.45;;;1.10;;
37907;SDS011;23740;51.550;6.846;2023-02-28T14:08:08;1.60;;;1.42;;
37907;SDS011;23740;51.550;6.846;2023-02-28T14:10:42;1.00;;;1.00;;
37907;SDS011;23740;51.550;6.846;2023-02-28T14:13:17;1.65;;;1.50;;
37907;SDS011;23740;51.550;6.846;2023-02-28T14:16:10;1.45;;;1.27;;
37907;SDS011;23740;51.550;6.846;2023-02-28T14:18:40;2.10;;;1.23;;
37907;SDS011;23740;51.550;6.846;2023-02-28T14:21:11;2.35;;;1.23;;
37907;SDS011;23740;51.550;6.846;2023-02-28T14:23:43;1.42;;;1.20;;
37907;SDS011;23740;51.550;6.846;2023-02-28T14:26:42;1.83;;;1.60;;
37907;SDS011;23740;51.550;6.846;2023-02-28T14:32:13;1.77;;;1.10;;
37907;SDS011;23740;51.550;6.846;2023-02-28T14:34:42;1.23;;;1.13;;
37907;SDS011;23740;51.550;6.846;2023-02-28T14:37:14;2.15;;;1.30;;
37907;SDS011;23740;51.550;6.846;2023-02-28T14:39:43;1.10;;;0.98;;
37907;SDS011;23740;51.550;6.846;2023-02-28T14:42:27;1.20;;;1.10;;
37907;SDS011;23740;51.550;6.846;2023-02-28T14:44:54;1.80;;;1.23;;
37907;SDS011;23740;51.550;6.846;2023-02-28T14:47:24;1.38;;;1.27;;
37907;SDS011;23740;51.550;6.846;2023-02-28T14:49:53;1.35;;;1.17;;
37907;SDS011;23740;51.550;6.846;2023-02-28T14:52:21;1.67;;;1.40;;
37907;SDS011;23740;51.550;6.846;2023-02-28T14:54:51;1.77;;;1.15;;
37907;SDS011;23740;51.550;6.846;2023-02-28T14:57:22;1.20;;;1.10;;
37907;SDS011;23740;51.550;6.846;2023-02-28T14:59:56;1.40;;;1.30;;
37907;SDS011;23740;51.550;6.846;2023-02-28T15:02:26;1.52;;;1.42;;
37907;SDS011;23740;51.550;6.846;2023-02-28T15:04:58;1.45;;;1.30;;
37907;SDS011;23740;51.550;6.846;2023-02-28T15:07:26;3.00;;;1.52;;
37907;SDS011;23740;51.550;6.846;2023-02-28T15:10:08;1.40;;;1.17;;
37907;SDS011;23740;51.550;6.846;2023-02-28T15:12:37;1.27;;;0.90;;
37907;SDS011;23740;51.550;6.846;2023-02-28T15:15:04;1.33;;;1.00;;
37907;SDS011;23740;51.550;6.846;2023-02-28T15:17:34;0.80;;;0.80;;
37907;SDS011;23740;51.550;6.846;2023-02-28T15:20:01;1.60;;;0.95;;
37907;SDS011;23740;51.550;6.846;2023-02-28T15:22:28;0.98;;;0.82;;
37907;SDS011;23740;51.550;6.846;2023-02-28T15:24:57;1.85;;;0.95;;
37907;SDS011;23740;51.550;6.846;2023-02-28T15:27:26;1.60;;;0.80;;
37907;SDS011;23740;51.550;6.846;2023-02-28T15:29:55;1.00;;;0.90;;
37907;SDS011;23740;51.550;6.846;2023-02-28T15:32:24;2.00;;;1.00;;
37907;SDS011;23740;51.550;6.846;2023-02-28T15:34:54;1.10;;;0.95;;
37907;SDS011;23740;51.550;6.846;2023-02-28T15:37:29;1.38;;;0.70;;
37907;SDS011;23740;51.550;6.846;2023-02-28T15:40:04;1.05;;;1.05;;
37907;SDS011;23740;51.550;6.846;2023-02-28T15:42:36;1.10;;;1.00;;
37907;SDS011;23740;51.550;6.846;2023-02-28T15:45:03;2.10;;;1.27;;
37907;SDS011;23740;51.550;6.846;2023-02-28T15:47:30;1.60;;;1.00;;
37907;SDS011;23740;51.550;6.846;2023-02-28T15:49:59;1.17;;;0.90;;
37907;SDS011;23740;51.550;6.846;2023-02-28T15:52:27;1.77;;;1.10;;